sensor_id;sensor_type;location;lat;lon;timestamp;P1;durP1;ratioP1;P2;durP2;ratioP2
45232;SDS011;30969;51.052;17.056;2022-08-01T00:03:39;6.13;;;2.10;;
45232;SDS011;30969;51.052;17.056;2022-08-01T00:08:43;3.83;;;2.50;;
45232;SDS011;30969;51.052;17.056;2022-08-01T00:13:48;3.65;;;2.35;;
45232;SDS011;30969;51.052;17.056;2022-08-01T00:18:51;5.30;;;2.42;;
45232;SDS011;30969;51.052;17.056;2022-08-01T00:23:55;4.30;;;2.70;;
45232;SDS011;30969;51.052;17.056;2022-08-01T00:29:00;4.80;;;2.38;;
45232;SDS011;30969;51.052;17.056;2022-08-01T00:34:12;5.57;;;2.30;;
45232;SDS011;30969;51.052;17.056;2022-08-01T00:39:15;3.13;;;2.28;;
45232;SDS011;30969;51.052;17.056;2022-08-01T00:44:20;4.63;;;2.25;;
45232;SDS011;30969;51.052;17.056;2022-08-01T00:49:23;3.78;;;2.15;;
45232;SDS011;30969;51.052;17.056;2022-08-01T00:54:27;5.88;;;2.60;;
45232;SDS011;30969;51.052;17.056;2022-08-01T00:59:32;4.80;;;2.33;;
45232;SDS011;30969;51.052;17.056;2022-08-01T01:04:37;4.18;;;2.58;;
45232;SDS011;30969;51.052;17.056;2022-08-01T01:09:42;7.57;;;3.03;;
45232;SDS011;30969;51.052;17.056;2022-08-01T01:14:54;2.92;;;2.10;;
45232;SDS011;30969;51.052;17.056;2022-08-01T01:20:05;6.97;;;3.10;;
45232;SDS011;30969;51.052;17.056;2022-08-01T01:25:22;2.67;;;2.17;;
45232;SDS011;30969;51.052;17.056;2022-08-01T01:30:44;2.83;;;2.38;;
45232;SDS011;30969;51.052;17.056;2022-08-01T01:35:52;3.40;;;2.40;;
45232;SDS011;30969;51.052;17.056;2022-08-01T01:41:00;3.10;;;2.40;;
45232;SDS011;30969;51.052;17.056;2022-08-01T01:46:08;4.82;;;2.35;;
45232;SDS011;30969;51.052;17.056;2022-08-01T01:51:15;5.13;;;2.83;;
45232;SDS011;30969;51.052;17.056;2022-08-01T01:56:19;7.72;;;3.00;;
45232;SDS011;30969;51.052;17.056;2022-08-01T02:01:25;6.32;;;2.80;;
45232;SDS011;30969;51.052;17.056;2022-08-01T02:06:52;6.50;;;3.10;;
45232;SDS011;30969;51.052;17.056;2022-08-01T02:11:56;3.47;;;2.95;;
45232;SDS011;30969;51.052;17.056;2022-08-01T02:17:12;4.88;;;2.80;;
45232;SDS011;30969;51.052;17.056;2022-08-01T02:22:21;5.78;;;2.47;;
45232;SDS011;30969;51.052;17.056;2022-08-01T02:27:33;2.97;;;2.60;;
45232;SDS011;30969;51.052;17.056;2022-08-01T02:32:42;4.00;;;2.83;;
45232;SDS011;30969;51.052;17.056;2022-08-01T02:37:48;6.97;;;2.55;;
45232;SDS011;30969;51.052;17.056;2022-08-01T02:42:52;4.05;;;2.90;;
45232;SDS011;30969;51.052;17.056;2022-08-01T02:48:01;4.13;;;2.58;;
45232;SDS011;30969;51.052;17.056;2022-08-01T02:53:08;3.22;;;2.38;;
45232;SDS011;30969;51.052;17.056;2022-08-01T02:58:14;4.22;;;2.60;;
45232;SDS011;30969;51.052;17.056;2022-08-01T03:03:21;5.47;;;2.90;;
45232;SDS011;30969;51.052;17.056;2022-08-01T03:08:25;3.38;;;2.63;;
45232;SDS011;30969;51.052;17.056;2022-08-01T03:13:30;3.88;;;2.70;;
45232;SDS011;30969;51.052;17.056;2022-08-01T03:18:37;5.78;;;2.67;;
45232;SDS011;30969;51.052;17.056;2022-08-01T03:23:42;3.55;;;2.45;;
45232;SDS011;30969;51.052;17.056;2022-08-01T03:28:50;5.35;;;2.80;;
45232;SDS011;30969;51.052;17.056;2022-08-01T03:33:59;5.72;;;2.80;;
45232;SDS011;30969;51.052;17.056;2022-08-01T03:39:06;4.80;;;2.78;;
45232;SDS011;30969;51.052;17.056;2022-08-01T03:44:14;6.43;;;3.10;;
45232;SDS011;30969;51.052;17.056;2022-08-01T03:49:23;3.95;;;3.00;;
45232;SDS011;30969;51.052;17.056;2022-08-01T03:54:30;4.25;;;2.65;;
45232;SDS011;30969;51.052;17.056;2022-08-01T03:59:37;4.55;;;2.72;;
45232;SDS011;30969;51.052;17.056;2022-08-01T04:04:43;6.35;;;2.75;;
45232;SDS011;30969;51.052;17.056;2022-08-01T04:09:47;5.47;;;3.10;;
45232;SDS011;30969;51.052;17.056;2022-08-01T04:14:51;6.05;;;3.00;;
45232;SDS011;30969;51.052;17.056;2022-08-01T04:19:56;4.53;;;2.97;;
45232;SDS011;30969;51.052;17.056;2022-08-01T04:24:59;4.47;;;4.03;;
45232;SDS011;30969;51.052;17.056;2022-08-01T04:30:05;5.90;;;4.28;;
45232;SDS011;30969;51.052;17.056;2022-08-01T04:35:12;7.03;;;3.38;;
45232;SDS011;30969;51.052;17.056;2022-08-01T04:40:38;7.30;;;4.65;;
45232;SDS011;30969;51.052;17.056;2022-08-01T04:45:43;6.55;;;3.90;;
45232;SDS011;30969;51.052;17.056;2022-08-01T04:50:50;14.57;;;4.97;;
45232;SDS011;30969;51.052;17.056;2022-08-01T04:55:54;7.03;;;4.90;;
45232;SDS011;30969;51.052;17.056;2022-08-01T05:00:58;7.82;;;4.00;;
45232;SDS011;30969;51.052;17.056;2022-08-01T05:06:03;8.85;;;3.92;;
45232;SDS011;30969;51.052;17.056;2022-08-01T05:11:07;6.53;;;4.35;;
45232;SDS011;30969;51.052;17.056;2022-08-01T05:16:10;10.40;;;6.38;;
45232;SDS011;30969;51.052;17.056;2022-08-01T05:21:15;10.57;;;5.32;;
45232;SDS011;30969;51.052;17.056;2022-08-01T05:26:18;8.63;;;4.97;;
45232;SDS011;30969;51.052;17.056;2022-08-01T05:31:22;9.38;;;5.75;;
45232;SDS011;30969;51.052;17.056;2022-08-01T05:36:27;8.38;;;5.43;;
45232;SDS011;30969;51.052;17.056;2022-08-01T05:41:31;9.77;;;5.85;;
45232;SDS011;30969;51.052;17.056;2022-08-01T05:46:34;9.57;;;5.20;;
45232;SDS011;30969;51.052;17.056;2022-08-01T05:51:39;9.75;;;5.55;;
45232;SDS011;30969;51.052;17.056;2022-08-01T05:56:43;6.90;;;4.90;;
45232;SDS011;30969;51.052;17.056;2022-08-01T06:01:47;10.15;;;5.65;;
45232;SDS011;30969;51.052;17.056;2022-08-01T06:06:51;7.28;;;5.65;;
45232;SDS011;30969;51.052;17.056;2022-08-01T06:11:55;13.35;;;7.40;;
45232;SDS011;30969;51.052;17.056;2022-08-01T06:16:58;7.65;;;5.40;;
45232;SDS011;30969;51.052;17.056;2022-08-01T06:22:05;8.23;;;4.75;;
45232;SDS011;30969;51.052;17.056;2022-08-01T06:27:09;7.97;;;4.85;;
45232;SDS011;30969;51.052;17.056;2022-08-01T06:32:23;6.25;;;3.95;;
45232;SDS011;30969;51.052;17.056;2022-08-01T06:37:30;8.40;;;5.90;;
45232;SDS011;30969;51.052;17.056;2022-08-01T06:42:34;6.30;;;4.82;;
45232;SDS011;30969;51.052;17.056;2022-08-01T06:47:38;8.70;;;4.82;;
45232;SDS011;30969;51.052;17.056;2022-08-01T06:52:43;7.65;;;3.97;;
45232;SDS011;30969;51.052;17.056;2022-08-01T06:57:47;6.60;;;4.45;;
45232;SDS011;30969;51.052;17.056;2022-08-01T07:02:53;9.93;;;4.93;;
45232;SDS011;30969;51.052;17.056;2022-08-01T07:07:59;5.43;;;3.70;;
45232;SDS011;30969;51.052;17.056;2022-08-01T07:13:03;9.10;;;4.13;;
45232;SDS011;30969;51.052;17.056;2022-08-01T07:18:06;4.35;;;3.22;;
45232;SDS011;30969;51.052;17.056;2022-08-01T07:23:11;6.60;;;3.25;;
45232;SDS011;30969;51.052;17.056;2022-08-01T07:28:15;5.03;;;3.22;;
45232;SDS011;30969;51.052;17.056;2022-08-01T07:33:18;6.35;;;3.08;;
45232;SDS011;30969;51.052;17.056;2022-08-01T07:38:24;5.10;;;3.17;;
45232;SDS011;30969;51.052;17.056;2022-08-01T07:43:27;4.45;;;3.20;;
45232;SDS011;30969;51.052;17.056;2022-08-01T07:48:31;5.55;;;3.25;;
45232;SDS011;30969;51.052;17.056;2022-08-01T07:53:36;4.68;;;3.55;;
45232;SDS011;30969;51.052;17.056;2022-08-01T07:58:40;7.03;;;3.40;;
45232;SDS011;30969;51.052;17.056;2022-08-01T08:03:44;7.88;;;3.35;;
45232;SDS011;30969;51.052;17.056;2022-08-01T08:08:50;6.22;;;3.30;;
45232;SDS011;30969;51.052;17.056;2022-08-01T08:13:55;6.32;;;2.90;;
45232;SDS011;30969;51.052;17.056;2022-08-01T08:18:58;4.80;;;3.13;;
45232;SDS011;30969;51.052;17.056;2022-08-01T08:24:03;5.75;;;2.95;;
45232;SDS011;30969;51.052;17.056;2022-08-01T08:29:28;5.78;;;2.80;;
45232;SDS011;30969;51.052;17.056;2022-08-01T08:34:34;4.40;;;3.08;;
45232;SDS011;30969;51.052;17.056;2022-08-01T08:39:39;4.45;;;3.28;;
45232;SDS011;30969;51.052;17.056;2022-08-01T08:44:43;5.20;;;3.15;;
45232;SDS011;30969;51.052;17.056;2022-08-01T08:49:47;9.35;;;3.42;;
45232;SDS011;30969;51.052;17.056;2022-08-01T08:54:55;3.47;;;3.00;;
45232;SDS011;30969;51.052;17.056;2022-08-01T09:00:00;3.47;;;3.00;;
45232;SDS011;30969;51.052;17.056;2022-08-01T09:05:04;6.97;;;3.25;;
45232;SDS011;30969;51.052;17.056;2022-08-01T09:10:10;4.15;;;2.83;;
45232;SDS011;30969;51.052;17.056;2022-08-01T09:15:15;3.80;;;3.03;;
45232;SDS011;30969;51.052;17.056;2022-08-01T09:20:22;5.65;;;3.55;;
45232;SDS011;30969;51.052;17.056;2022-08-01T09:25:27;4.13;;;3.15;;
45232;SDS011;30969;51.052;17.056;2022-08-01T09:30:47;6.57;;;3.42;;
45232;SDS011;30969;51.052;17.056;2022-08-01T09:35:53;7.50;;;3.40;;
45232;SDS011;30969;51.052;17.056;2022-08-01T09:41:00;7.38;;;3.28;;
45232;SDS011;30969;51.052;17.056;2022-08-01T09:46:04;6.38;;;3.03;;
45232;SDS011;30969;51.052;17.056;2022-08-01T09:51:13;8.90;;;4.05;;
45232;SDS011;30969;51.052;17.056;2022-08-01T09:56:52;4.18;;;3.45;;
45232;SDS011;30969;51.052;17.056;2022-08-01T10:01:56;4.90;;;3.47;;
45232;SDS011;30969;51.052;17.056;2022-08-01T10:07:03;8.20;;;3.35;;
45232;SDS011;30969;51.052;17.056;2022-08-01T10:12:11;6.68;;;3.30;;
45232;SDS011;30969;51.052;17.056;2022-08-01T10:17:18;7.00;;;3.28;;
45232;SDS011;30969;51.052;17.056;2022-08-01T10:22:23;6.85;;;3.10;;
45232;SDS011;30969;51.052;17.056;2022-08-01T10:27:32;4.72;;;3.22;;
45232;SDS011;30969;51.052;17.056;2022-08-01T10:32:40;6.75;;;3.17;;
45232;SDS011;30969;51.052;17.056;2022-08-01T10:37:51;3.53;;;2.65;;
45232;SDS011;30969;51.052;17.056;2022-08-01T10:43:02;4.00;;;2.88;;
45232;SDS011;30969;51.052;17.056;2022-08-01T10:48:09;3.33;;;2.97;;
45232;SDS011;30969;51.052;17.056;2022-08-01T10:53:22;6.18;;;2.92;;
45232;SDS011;30969;51.052;17.056;2022-08-01T10:58:45;4.15;;;3.53;;
45232;SDS011;30969;51.052;17.056;2022-08-01T11:03:58;5.57;;;3.30;;
45232;SDS011;30969;51.052;17.056;2022-08-01T11:09:06;3.88;;;2.80;;
45232;SDS011;30969;51.052;17.056;2022-08-01T11:14:24;6.07;;;3.05;;
45232;SDS011;30969;51.052;17.056;2022-08-01T11:20:03;5.07;;;3.38;;
45232;SDS011;30969;51.052;17.056;2022-08-01T11:25:09;4.60;;;3.30;;
45232;SDS011;30969;51.052;17.056;2022-08-01T11:30:25;6.75;;;3.90;;
45232;SDS011;30969;51.052;17.056;2022-08-01T11:35:31;3.92;;;3.30;;
45232;SDS011;30969;51.052;17.056;2022-08-01T11:40:35;5.38;;;3.20;;
45232;SDS011;30969;51.052;17.056;2022-08-01T11:45:50;5.18;;;3.30;;
45232;SDS011;30969;51.052;17.056;2022-08-01T11:50:58;3.75;;;3.28;;
45232;SDS011;30969;51.052;17.056;2022-08-01T11:56:03;8.90;;;3.22;;
45232;SDS011;30969;51.052;17.056;2022-08-01T12:01:08;4.40;;;3.50;;
45232;SDS011;30969;51.052;17.056;2022-08-01T12:06:26;6.07;;;3.05;;
45232;SDS011;30969;51.052;17.056;2022-08-01T12:11:30;5.00;;;2.80;;
45232;SDS011;30969;51.052;17.056;2022-08-01T12:16:39;3.78;;;2.75;;
45232;SDS011;30969;51.052;17.056;2022-08-01T12:21:42;3.75;;;2.58;;
45232;SDS011;30969;51.052;17.056;2022-08-01T12:26:46;4.53;;;3.22;;
45232;SDS011;30969;51.052;17.056;2022-08-01T12:31:51;5.03;;;2.92;;
45232;SDS011;30969;51.052;17.056;2022-08-01T12:36:57;3.90;;;2.50;;
45232;SDS011;30969;51.052;17.056;2022-08-01T12:42:05;4.45;;;2.60;;
45232;SDS011;30969;51.052;17.056;2022-08-01T12:47:13;4.35;;;2.35;;
45232;SDS011;30969;51.052;17.056;2022-08-01T12:52:17;3.03;;;2.58;;
45232;SDS011;30969;51.052;17.056;2022-08-01T12:57:28;2.58;;;1.90;;
45232;SDS011;30969;51.052;17.056;2022-08-01T13:02:33;4.88;;;2.17;;
45232;SDS011;30969;51.052;17.056;2022-08-01T13:07:38;3.20;;;2.28;;
45232;SDS011;30969;51.052;17.056;2022-08-01T13:12:50;7.43;;;2.88;;
45232;SDS011;30969;51.052;17.056;2022-08-01T13:17:56;3.58;;;2.58;;
45232;SDS011;30969;51.052;17.056;2022-08-01T13:23:14;3.80;;;3.13;;
45232;SDS011;30969;51.052;17.056;2022-08-01T13:28:38;5.10;;;2.90;;
45232;SDS011;30969;51.052;17.056;2022-08-01T13:33:44;3.05;;;2.47;;
45232;SDS011;30969;51.052;17.056;2022-08-01T13:39:02;3.40;;;2.65;;
45232;SDS011;30969;51.052;17.056;2022-08-01T13:44:24;5.75;;;2.72;;
45232;SDS011;30969;51.052;17.056;2022-08-01T13:49:29;6.45;;;3.60;;
45232;SDS011;30969;51.052;17.056;2022-08-01T13:54:38;3.97;;;2.90;;
45232;SDS011;30969;51.052;17.056;2022-08-01T13:59:42;3.83;;;1.75;;
45232;SDS011;30969;51.052;17.056;2022-08-01T14:04:47;1.95;;;1.60;;
45232;SDS011;30969;51.052;17.056;2022-08-01T14:09:50;1.60;;;1.50;;
45232;SDS011;30969;51.052;17.056;2022-08-01T14:15:14;1.40;;;1.30;;
45232;SDS011;30969;51.052;17.056;2022-08-01T14:20:39;3.72;;;1.70;;
45232;SDS011;30969;51.052;17.056;2022-08-01T14:25:42;2.45;;;1.80;;
45232;SDS011;30969;51.052;17.056;2022-08-01T14:31:05;2.00;;;1.73;;
45232;SDS011;30969;51.052;17.056;2022-08-01T14:36:10;6.68;;;2.15;;
45232;SDS011;30969;51.052;17.056;2022-08-01T14:41:31;3.45;;;1.67;;
45232;SDS011;30969;51.052;17.056;2022-08-01T14:46:35;3.22;;;2.33;;
45232;SDS011;30969;51.052;17.056;2022-08-01T14:52:00;4.00;;;2.20;;
45232;SDS011;30969;51.052;17.056;2022-08-01T14:57:04;3.80;;;2.70;;
45232;SDS011;30969;51.052;17.056;2022-08-01T15:02:07;6.88;;;2.40;;
45232;SDS011;30969;51.052;17.056;2022-08-01T15:07:13;4.47;;;1.90;;
45232;SDS011;30969;51.052;17.056;2022-08-01T15:12:17;3.10;;;1.92;;
45232;SDS011;30969;51.052;17.056;2022-08-01T15:17:22;5.13;;;2.00;;
45232;SDS011;30969;51.052;17.056;2022-08-01T15:22:28;2.15;;;1.70;;
45232;SDS011;30969;51.052;17.056;2022-08-01T15:27:32;1.45;;;1.23;;
45232;SDS011;30969;51.052;17.056;2022-08-01T15:32:35;3.30;;;1.50;;
45232;SDS011;30969;51.052;17.056;2022-08-01T15:37:41;2.05;;;1.70;;
45232;SDS011;30969;51.052;17.056;2022-08-01T15:42:44;3.45;;;1.35;;
45232;SDS011;30969;51.052;17.056;2022-08-01T15:47:48;3.75;;;1.17;;
45232;SDS011;30969;51.052;17.056;2022-08-01T15:52:53;3.05;;;1.10;;
45232;SDS011;30969;51.052;17.056;2022-08-01T15:57:57;6.72;;;1.50;;
45232;SDS011;30969;51.052;17.056;2022-08-01T16:03:00;2.42;;;0.95;;
45232;SDS011;30969;51.052;17.056;2022-08-01T16:08:05;7.00;;;0.90;;
45232;SDS011;30969;51.052;17.056;2022-08-01T16:13:09;2.58;;;0.82;;
45232;SDS011;30969;51.052;17.056;2022-08-01T16:18:13;2.05;;;0.52;;
45232;SDS011;30969;51.052;17.056;2022-08-01T16:23:18;0.93;;;0.65;;
45232;SDS011;30969;51.052;17.056;2022-08-01T16:28:22;1.05;;;0.70;;
45232;SDS011;30969;51.052;17.056;2022-08-01T16:33:26;1.67;;;0.77;;
45232;SDS011;30969;51.052;17.056;2022-08-01T16:38:50;0.80;;;0.57;;
45232;SDS011;30969;51.052;17.056;2022-08-01T16:43:54;0.93;;;0.60;;
45232;SDS011;30969;51.052;17.056;2022-08-01T16:48:57;0.63;;;0.50;;
45232;SDS011;30969;51.052;17.056;2022-08-01T16:54:02;1.65;;;0.60;;
45232;SDS011;30969;51.052;17.056;2022-08-01T16:59:26;0.57;;;0.52;;
45232;SDS011;30969;51.052;17.056;2022-08-01T17:04:30;0.73;;;0.70;;
45232;SDS011;30969;51.052;17.056;2022-08-01T17:09:34;2.35;;;0.90;;
45232;SDS011;30969;51.052;17.056;2022-08-01T17:14:44;1.55;;;0.55;;
45232;SDS011;30969;51.052;17.056;2022-08-01T17:19:48;0.88;;;0.60;;
45232;SDS011;30969;51.052;17.056;2022-08-01T17:24:53;2.58;;;0.63;;
45232;SDS011;30969;51.052;17.056;2022-08-01T17:29:56;1.85;;;0.57;;
45232;SDS011;30969;51.052;17.056;2022-08-01T17:35:00;0.85;;;0.47;;
45232;SDS011;30969;51.052;17.056;2022-08-01T17:40:05;0.57;;;0.55;;
45232;SDS011;30969;51.052;17.056;2022-08-01T17:45:30;5.20;;;1.00;;
45232;SDS011;30969;51.052;17.056;2022-08-01T17:50:41;1.20;;;0.75;;
45232;SDS011;30969;51.052;17.056;2022-08-01T17:55:47;1.13;;;0.80;;
45232;SDS011;30969;51.052;17.056;2022-08-01T18:00:58;3.10;;;0.90;;
45232;SDS011;30969;51.052;17.056;2022-08-01T18:06:01;2.97;;;1.00;;
45232;SDS011;30969;51.052;17.056;2022-08-01T18:11:08;1.35;;;1.20;;
45232;SDS011;30969;51.052;17.056;2022-08-01T18:16:11;2.25;;;1.27;;
45232;SDS011;30969;51.052;17.056;2022-08-01T18:21:15;1.50;;;1.17;;
45232;SDS011;30969;51.052;17.056;2022-08-01T18:26:20;2.15;;;0.93;;
45232;SDS011;30969;51.052;17.056;2022-08-01T18:31:24;1.38;;;1.20;;
45232;SDS011;30969;51.052;17.056;2022-08-01T18:36:28;1.77;;;1.40;;
45232;SDS011;30969;51.052;17.056;2022-08-01T18:41:35;1.23;;;1.00;;
45232;SDS011;30969;51.052;17.056;2022-08-01T18:46:39;3.22;;;0.95;;
45232;SDS011;30969;51.052;17.056;2022-08-01T18:51:43;1.60;;;1.23;;
45232;SDS011;30969;51.052;17.056;2022-08-01T18:56:49;2.97;;;1.27;;
45232;SDS011;30969;51.052;17.056;2022-08-01T19:01:53;1.67;;;1.23;;
45232;SDS011;30969;51.052;17.056;2022-08-01T19:06:57;3.08;;;1.55;;
45232;SDS011;30969;51.052;17.056;2022-08-01T19:12:01;2.85;;;1.50;;
45232;SDS011;30969;51.052;17.056;2022-08-01T19:17:05;2.65;;;1.60;;
45232;SDS011;30969;51.052;17.056;2022-08-01T19:22:09;2.53;;;1.40;;
45232;SDS011;30969;51.052;17.056;2022-08-01T19:27:15;1.63;;;1.40;;
45232;SDS011;30969;51.052;17.056;2022-08-01T19:32:19;2.30;;;1.50;;
45232;SDS011;30969;51.052;17.056;2022-08-01T19:37:23;2.28;;;2.03;;
45232;SDS011;30969;51.052;17.056;2022-08-01T19:42:29;3.25;;;1.90;;
45232;SDS011;30969;51.052;17.056;2022-08-01T19:47:33;2.20;;;1.73;;
45232;SDS011;30969;51.052;17.056;2022-08-01T19:52:56;3.20;;;2.05;;
45232;SDS011;30969;51.052;17.056;2022-08-01T19:58:05;3.25;;;1.92;;
45232;SDS011;30969;51.052;17.056;2022-08-01T20:03:28;2.22;;;2.03;;
45232;SDS011;30969;51.052;17.056;2022-08-01T20:08:34;4.53;;;2.45;;
45232;SDS011;30969;51.052;17.056;2022-08-01T20:13:39;5.13;;;2.20;;
45232;SDS011;30969;51.052;17.056;2022-08-01T20:18:43;3.42;;;2.45;;
45232;SDS011;30969;51.052;17.056;2022-08-01T20:23:46;3.25;;;2.08;;
45232;SDS011;30969;51.052;17.056;2022-08-01T20:28:54;3.00;;;2.10;;
45232;SDS011;30969;51.052;17.056;2022-08-01T20:33:59;2.33;;;2.10;;
45232;SDS011;30969;51.052;17.056;2022-08-01T20:39:03;3.78;;;2.63;;
45232;SDS011;30969;51.052;17.056;2022-08-01T20:44:10;2.70;;;2.20;;
45232;SDS011;30969;51.052;17.056;2022-08-01T20:49:17;2.50;;;2.10;;
45232;SDS011;30969;51.052;17.056;2022-08-01T20:54:22;4.78;;;2.67;;
45232;SDS011;30969;51.052;17.056;2022-08-01T20:59:30;3.25;;;2.33;;
45232;SDS011;30969;51.052;17.056;2022-08-01T21:04:56;2.72;;;2.20;;
45232;SDS011;30969;51.052;17.056;2022-08-01T21:10:05;4.40;;;2.90;;
45232;SDS011;30969;51.052;17.056;2022-08-01T21:15:13;3.10;;;2.20;;
45232;SDS011;30969;51.052;17.056;2022-08-01T21:20:26;3.58;;;2.80;;
45232;SDS011;30969;51.052;17.056;2022-08-01T21:25:32;3.50;;;2.45;;
45232;SDS011;30969;51.052;17.056;2022-08-01T21:30:38;3.63;;;2.60;;
45232;SDS011;30969;51.052;17.056;2022-08-01T21:35:55;3.45;;;2.70;;
45232;SDS011;30969;51.052;17.056;2022-08-01T21:46:11;4.13;;;2.42;;
45232;SDS011;30969;51.052;17.056;2022-08-01T21:51:20;3.45;;;2.70;;
45232;SDS011;30969;51.052;17.056;2022-08-01T21:56:35;3.35;;;2.72;;
45232;SDS011;30969;51.052;17.056;2022-08-01T22:01:51;6.72;;;3.00;;
45232;SDS011;30969;51.052;17.056;2022-08-01T22:07:01;4.10;;;2.95;;
45232;SDS011;30969;51.052;17.056;2022-08-01T22:12:07;3.55;;;3.08;;
45232;SDS011;30969;51.052;17.056;2022-08-01T22:17:20;3.65;;;3.00;;
45232;SDS011;30969;51.052;17.056;2022-08-01T22:22:25;3.70;;;3.38;;
45232;SDS011;30969;51.052;17.056;2022-08-01T22:27:50;4.20;;;3.25;;
45232;SDS011;30969;51.052;17.056;2022-08-01T22:33:11;4.38;;;3.42;;
45232;SDS011;30969;51.052;17.056;2022-08-01T22:38:19;4.10;;;3.13;;
45232;SDS011;30969;51.052;17.056;2022-08-01T22:43:25;3.30;;;2.90;;
45232;SDS011;30969;51.052;17.056;2022-08-01T22:48:43;4.43;;;3.10;;
45232;SDS011;30969;51.052;17.056;2022-08-01T22:53:49;5.35;;;3.40;;
45232;SDS011;30969;51.052;17.056;2022-08-01T22:58:56;4.80;;;3.58;;
45232;SDS011;30969;51.052;17.056;2022-08-01T23:04:05;4.32;;;3.58;;
45232;SDS011;30969;51.052;17.056;2022-08-01T23:09:11;4.90;;;3.65;;
45232;SDS011;30969;51.052;17.056;2022-08-01T23:14:16;4.75;;;3.67;;
45232;SDS011;30969;51.052;17.056;2022-08-01T23:19:23;4.63;;;3.75;;
45232;SDS011;30969;51.052;17.056;2022-08-01T23:24:28;5.38;;;3.33;;
45232;SDS011;30969;51.052;17.056;2022-08-01T23:29:32;5.60;;;3.47;;
45232;SDS011;30969;51.052;17.056;2022-08-01T23:34:37;6.10;;;3.22;;
45232;SDS011;30969;51.052;17.056;2022-08-01T23:39:41;6.55;;;3.40;;
45232;SDS011;30969;51.052;17.056;2022-08-01T23:44:45;4.47;;;3.17;;
45232;SDS011;30969;51.052;17.056;2022-08-01T23:49:51;4.05;;;2.97;;
45232;SDS011;30969;51.052;17.056;2022-08-01T23:54:54;3.90;;;3.20;;
